Time;durP1;ratioP1;P1;durP2;ratioP2;P2;SDS_P1;SDS_P2;PMS_P1;PMS_P2;Temp;Humidity;BMP_temperature;BMP_pressure;BME280_temperature;BME280_humidity;BME280_pressure;Samples;Min_cycle;Max_cycle;Signal;HPM_P1;HPM_P2
2023/12/31 00:01:17;;;;;;;513.53;485.87;;;7.40;99.90;;;;;;4972795;28;20537;-78
2023/12/31 00:03:45;;;;;;;510.23;482.87;;;7.40;99.90;;;;;;4973075;28;20509;-78
2023/12/31 00:06:12;;;;;;;509.07;482.10;;;7.30;99.90;;;;;;4972177;28;20485;-77
2023/12/31 00:08:38;;;;;;;506.67;479.87;;;7.40;99.90;;;;;;4972283;28;20457;-78
2023/12/31 00:11:05;;;;;;;502.47;476.60;;;7.40;99.90;;;;;;4972728;28;20454;-78
2023/12/31 00:13:32;;;;;;;483.07;458.30;;;7.30;99.90;;;;;;4972660;28;20458;-77
2023/12/31 00:16:01;;;;;;;477.43;452.33;;;7.30;99.90;;;;;;4972301;28;20820;-77
2023/12/31 00:18:28;;;;;;;489.07;462.87;;;7.20;99.90;;;;;;4972318;28;20554;-77
2023/12/31 00:20:56;;;;;;;494.87;469.10;;;7.20;99.90;;;;;;4972307;28;20463;-77
2023/12/31 00:23:23;;;;;;;511.83;484.43;;;7.10;99.90;;;;;;4972670;28;20458;-78
2023/12/31 00:25:50;;;;;;;521.47;492.17;;;7.00;99.90;;;;;;4972654;28;20468;-77
2023/12/31 00:28:17;;;;;;;522.90;494.60;;;7.00;99.90;;;;;;4972302;28;20554;-77
2023/12/31 00:30:44;;;;;;;527.87;499.00;;;6.90;99.90;;;;;;4972402;28;20455;-77
2023/12/31 00:33:11;;;;;;;520.93;492.33;;;6.90;99.90;;;;;;4972283;28;20462;-77
2023/12/31 00:35:40;;;;;;;530.33;501.10;;;6.90;99.90;;;;;;4972517;28;20468;-77
2023/12/31 00:38:08;;;;;;;537.73;507.17;;;6.80;99.90;;;;;;4972188;28;20942;-77
2023/12/31 00:40:35;;;;;;;553.23;521.77;;;6.80;99.90;;;;;;4972495;28;20456;-77
2023/12/31 00:43:02;;;;;;;567.13;532.87;;;6.70;99.90;;;;;;4972254;28;20493;-77
2023/12/31 00:45:29;;;;;;;599.07;560.40;;;6.60;99.90;;;;;;4972120;28;20460;-77
2023/12/31 00:47:56;;;;;;;585.23;546.40;;;6.70;99.90;;;;;;4972001;28;20922;-77
2023/12/31 00:50:25;;;;;;;590.37;550.93;;;6.80;99.90;;;;;;4972282;28;20462;-78
2023/12/31 00:52:52;;;;;;;577.63;539.13;;;6.90;99.90;;;;;;4972413;28;20954;-78
2023/12/31 00:55:21;;;;;;;566.93;530.07;;;7.00;99.90;;;;;;4972307;28;20451;-77
2023/12/31 00:57:48;;;;;;;535.00;500.00;;;7.10;99.90;;;;;;4971879;28;20494;-77
2023/12/31 01:00:15;;;;;;;524.57;492.10;;;7.20;99.90;;;;;;4972102;28;20464;-77
2023/12/31 01:02:42;;;;;;;510.70;480.10;;;7.20;99.90;;;;;;4972505;28;20450;-77
2023/12/31 01:05:09;;;;;;;494.17;465.27;;;7.20;99.90;;;;;;4972065;28;20923;-78
2023/12/31 01:07:36;;;;;;;481.67;454.73;;;7.30;99.90;;;;;;4975476;28;20923;-77
2023/12/31 01:10:04;;;;;;;474.00;448.60;;;7.20;99.90;;;;;;4975685;28;20542;-77
2023/12/31 01:12:32;;;;;;;473.70;448.70;;;7.20;99.90;;;;;;4975912;28;20452;-77
2023/12/31 01:14:59;;;;;;;466.07;441.77;;;7.10;99.90;;;;;;4975355;28;20484;-77
2023/12/31 01:17:26;;;;;;;465.53;442.00;;;7.10;99.90;;;;;;4975616;28;21030;-79
2023/12/31 01:19:53;;;;;;;393.73;375.03;;;7.30;99.90;;;;;;4975333;28;20463;-78
2023/12/31 01:22:20;;;;;;;323.47;309.17;;;7.80;99.90;;;;;;4975621;28;20892;-79
2023/12/31 01:24:47;;;;;;;280.17;268.27;;;8.20;99.90;;;;;;4975143;28;20939;-79
2023/12/31 01:27:14;;;;;;;240.83;231.00;;;8.50;99.90;;;;;;4975293;28;20478;-79
2023/12/31 01:29:42;;;;;;;215.17;206.83;;;8.60;99.90;;;;;;4974959;28;20457;-79
2023/12/31 01:32:09;;;;;;;162.70;156.73;;;8.60;99.90;;;;;;4975432;28;20877;-78
2023/12/31 01:34:36;;;;;;;143.47;138.17;;;8.60;99.90;;;;;;4974999;28;20461;-79
2023/12/31 01:37:04;;;;;;;116.30;112.13;;;8.70;99.00;;;;;;4975437;28;20454;-79
2023/12/31 01:39:31;;;;;;;58.97;56.73;;;8.70;99.20;;;;;;4975198;28;20450;-79
2023/12/31 01:41:58;;;;;;;35.57;34.07;;;8.60;98.90;;;;;;4975249;28;20458;-78
2023/12/31 01:44:27;;;;;;;35.23;33.67;;;8.50;99.20;;;;;;4974825;28;20549;-80
2023/12/31 01:46:56;;;;;;;34.47;32.83;;;8.40;98.50;;;;;;4975021;28;21068;-78
2023/12/31 01:49:23;;;;;;;35.83;34.07;;;8.50;97.70;;;;;;4974964;28;20804;-79
2023/12/31 01:51:51;;;;;;;31.13;29.83;;;8.40;97.60;;;;;;4975042;28;20450;-80
2023/12/31 01:54:19;;;;;;;38.77;37.17;;;8.40;97.50;;;;;;4974923;28;20459;-79
2023/12/31 01:56:47;;;;;;;32.97;31.53;;;8.30;97.90;;;;;;4974326;28;20943;-78
2023/12/31 01:59:14;;;;;;;28.93;27.43;;;8.20;98.20;;;;;;4974870;28;20490;-79
2023/12/31 02:01:41;;;;;;;30.77;29.37;;;8.10;97.90;;;;;;4974925;28;20450;-78
2023/12/31 02:04:09;;;;;;;31.10;29.73;;;8.10;97.90;;;;;;4974713;28;20959;-78
2023/12/31 02:06:36;;;;;;;30.03;28.50;;;8.00;97.80;;;;;;4974519;28;20483;-78
2023/12/31 02:09:04;;;;;;;29.50;28.00;;;7.90;99.10;;;;;;4974369;28;20455;-78
2023/12/31 02:11:31;;;;;;;35.63;34.10;;;7.80;99.90;;;;;;4974892;28;20459;-78
2023/12/31 02:13:59;;;;;;;47.57;45.57;;;7.70;99.90;;;;;;4974712;28;20967;-78
2023/12/31 02:16:27;;;;;;;53.20;51.17;;;7.70;99.90;;;;;;4974204;28;20457;-78
2023/12/31 02:18:54;;;;;;;64.50;62.00;;;7.70;99.90;;;;;;4974741;28;20500;-77
2023/12/31 02:21:23;;;;;;;76.17;73.37;;;7.60;99.90;;;;;;4974463;28;20986;-77
2023/12/31 02:23:50;;;;;;;89.80;86.20;;;7.60;99.90;;;;;;4974288;28;20521;-77
2023/12/31 02:26:19;;;;;;;100.10;96.63;;;7.60;99.90;;;;;;4973849;28;21006;-77
2023/12/31 02:28:46;;;;;;;108.67;104.97;;;7.60;99.90;;;;;;4974046;28;20457;-77
2023/12/31 02:31:12;;;;;;;116.83;112.80;;;7.70;99.90;;;;;;4974412;28;20818;-77
2023/12/31 02:33:39;;;;;;;122.40;118.10;;;7.70;99.90;;;;;;4974248;28;20442;-77
2023/12/31 02:36:07;;;;;;;129.97;124.97;;;7.80;99.90;;;;;;4973662;28;20450;-78
2023/12/31 02:38:34;;;;;;;129.97;125.57;;;7.80;99.90;;;;;;4973481;28;21003;-79
2023/12/31 02:41:00;;;;;;;129.40;124.90;;;7.80;99.90;;;;;;4973358;28;20546;-77
2023/12/31 02:43:29;;;;;;;126.23;121.83;;;7.90;99.90;;;;;;4973626;28;20455;-78
2023/12/31 02:45:55;;;;;;;119.20;115.00;;;8.00;99.90;;;;;;4973376;28;20461;-77
2023/12/31 02:48:22;;;;;;;116.40;112.43;;;8.00;99.90;;;;;;4972960;28;20491;-77
2023/12/31 02:50:49;;;;;;;113.67;109.77;;;8.00;99.90;;;;;;4973339;28;20897;-77
2023/12/31 02:53:16;;;;;;;112.10;108.20;;;8.00;99.90;;;;;;4973778;28;21050;-78
2023/12/31 02:55:43;;;;;;;116.87;112.77;;;7.90;99.90;;;;;;4973045;28;20483;-79
2023/12/31 02:58:10;;;;;;;116.33;112.33;;;8.00;99.90;;;;;;4973295;28;20458;-78
2023/12/31 03:00:38;;;;;;;119.60;115.50;;;8.00;99.90;;;;;;4973661;28;20529;-78
2023/12/31 03:03:05;;;;;;;128.53;123.87;;;7.90;99.90;;;;;;4973587;28;20458;-79
2023/12/31 03:05:32;;;;;;;148.67;143.63;;;7.90;99.90;;;;;;4972618;28;20461;-77
2023/12/31 03:07:59;;;;;;;159.20;153.60;;;7.90;99.90;;;;;;4973216;28;20577;-77
2023/12/31 03:10:27;;;;;;;178.37;172.37;;;7.80;99.90;;;;;;4973366;28;20455;-77
2023/12/31 03:12:54;;;;;;;199.60;192.97;;;7.80;99.90;;;;;;4973386;28;20461;-77
2023/12/31 03:15:21;;;;;;;225.17;217.67;;;7.80;99.90;;;;;;4973238;28;20459;-77
2023/12/31 03:17:49;;;;;;;260.20;251.07;;;7.80;99.90;;;;;;4973201;28;20816;-78
2023/12/31 03:20:16;;;;;;;297.60;286.80;;;7.80;99.90;;;;;;4973373;28;20485;-78
2023/12/31 03:22:45;;;;;;;301.33;290.57;;;7.80;99.90;;;;;;4973371;28;20575;-77
2023/12/31 03:25:12;;;;;;;311.67;300.30;;;7.80;99.90;;;;;;4972643;28;20457;-77
2023/12/31 03:27:39;;;;;;;330.77;318.47;;;7.80;99.90;;;;;;4973180;28;20573;-77
2023/12/31 03:30:08;;;;;;;330.83;318.47;;;7.80;99.90;;;;;;4972107;28;20947;-78
2023/12/31 03:32:35;;;;;;;332.37;319.03;;;7.80;99.90;;;;;;4972791;28;20454;-78
2023/12/31 03:35:03;;;;;;;326.07;313.47;;;7.90;99.90;;;;;;4972831;28;20458;-78
2023/12/31 03:37:31;;;;;;;316.20;304.30;;;7.90;99.90;;;;;;4973093;28;20453;-78
2023/12/31 03:39:58;;;;;;;291.07;279.87;;;7.90;99.90;;;;;;4972821;28;20536;-78
2023/12/31 03:42:25;;;;;;;264.90;255.30;;;8.00;99.90;;;;;;4972898;28;20546;-78
2023/12/31 03:44:52;;;;;;;240.83;232.23;;;8.00;99.90;;;;;;4972318;28;20455;-78
2023/12/31 03:47:19;;;;;;;216.20;208.70;;;8.10;99.90;;;;;;4972899;28;20479;-79
2023/12/31 03:49:45;;;;;;;201.33;194.20;;;8.20;99.90;;;;;;4972501;28;20462;-78
2023/12/31 03:52:14;;;;;;;185.40;178.90;;;8.20;99.90;;;;;;4972849;28;20557;-78
2023/12/31 03:54:41;;;;;;;177.83;171.73;;;8.20;99.90;;;;;;4972312;28;20505;-78
2023/12/31 03:57:08;;;;;;;170.00;164.10;;;8.20;99.90;;;;;;4972994;28;20466;-78
2023/12/31 03:59:35;;;;;;;162.83;157.23;;;8.20;99.90;;;;;;4972397;28;20841;-78
2023/12/31 04:02:02;;;;;;;155.20;149.67;;;8.20;99.90;;;;;;4972575;28;20538;-78
2023/12/31 04:04:30;;;;;;;151.50;146.20;;;8.20;99.90;;;;;;4972301;28;20537;-79
2023/12/31 04:06:57;;;;;;;144.70;139.80;;;8.20;99.90;;;;;;4972539;28;20450;-78
2023/12/31 04:09:25;;;;;;;144.87;139.70;;;8.20;99.90;;;;;;4972227;28;20457;-79
2023/12/31 04:11:52;;;;;;;144.13;139.17;;;8.20;99.90;;;;;;4972460;28;20455;-78
2023/12/31 04:14:19;;;;;;;141.60;136.70;;;8.20;99.90;;;;;;4971341;28;20457;-79
2023/12/31 04:16:46;;;;;;;148.17;142.97;;;8.20;99.90;;;;;;4972272;28;20490;-78
2023/12/31 04:19:14;;;;;;;158.40;152.90;;;8.10;99.90;;;;;;4972070;28;21035;-78
2023/12/31 04:21:42;;;;;;;157.83;152.30;;;8.20;99.90;;;;;;4972815;28;20456;-78
2023/12/31 04:24:08;;;;;;;157.87;152.43;;;8.10;99.90;;;;;;4972347;28;20696;-78
2023/12/31 04:26:37;;;;;;;158.70;152.90;;;8.20;99.90;;;;;;4971827;28;20456;-78
2023/12/31 04:29:04;;;;;;;166.47;160.57;;;8.10;99.90;;;;;;4972256;28;20482;-78
2023/12/31 04:31:30;;;;;;;168.07;162.30;;;8.10;99.90;;;;;;4972444;28;20463;-78
2023/12/31 04:33:57;;;;;;;175.77;169.77;;;8.10;99.90;;;;;;4972342;28;20454;-78
2023/12/31 04:36:24;;;;;;;193.27;186.57;;;8.10;99.90;;;;;;4971976;28;20454;-78
2023/12/31 04:38:51;;;;;;;192.30;185.30;;;8.00;99.90;;;;;;4972097;28;20447;-78
2023/12/31 04:41:21;;;;;;;194.63;187.93;;;8.00;99.90;;;;;;4975345;28;20450;-78
2023/12/31 04:43:50;;;;;;;199.80;192.90;;;8.00;99.90;;;;;;4976048;28;20473;-77
2023/12/31 04:46:18;;;;;;;193.70;187.07;;;8.00;99.90;;;;;;4975892;28;20526;-78
2023/12/31 04:48:45;;;;;;;186.07;179.50;;;8.10;99.90;;;;;;4975848;28;20529;-78
2023/12/31 04:51:23;;;;;;;182.57;176.27;;;8.10;99.90;;;;;;4975876;28;20454;-78
2023/12/31 04:53:50;;;;;;;181.87;175.57;;;8.10;99.90;;;;;;4975824;28;20837;-79
2023/12/31 04:56:19;;;;;;;181.40;174.57;;;8.10;99.90;;;;;;4975419;28;20457;-78
2023/12/31 04:58:47;;;;;;;179.03;172.77;;;8.10;99.90;;;;;;4975432;28;20841;-78
2023/12/31 05:01:16;;;;;;;165.50;159.70;;;8.10;99.90;;;;;;4975838;28;20455;-78
2023/12/31 05:03:43;;;;;;;158.90;153.50;;;8.10;99.90;;;;;;4975739;28;20453;-78
2023/12/31 05:06:12;;;;;;;150.43;145.10;;;8.20;99.90;;;;;;4975279;28;20873;-78
2023/12/31 05:08:40;;;;;;;139.93;134.60;;;8.20;99.90;;;;;;4975667;28;20568;-78
2023/12/31 05:11:07;;;;;;;130.50;126.00;;;8.20;99.90;;;;;;4975770;28;20464;-79
2023/12/31 05:13:34;;;;;;;128.83;124.33;;;8.20;99.90;;;;;;4976003;28;20455;-78
2023/12/31 05:16:04;;;;;;;120.87;116.70;;;8.20;99.90;;;;;;4975385;28;20807;-78
2023/12/31 05:18:33;;;;;;;108.40;104.50;;;8.20;99.90;;;;;;4975298;28;20450;-78
2023/12/31 05:21:01;;;;;;;105.03;101.23;;;8.30;99.90;;;;;;4975183;28;20775;-78
2023/12/31 05:23:30;;;;;;;94.93;91.53;;;8.30;99.90;;;;;;4975537;28;20538;-78
2023/12/31 05:25:57;;;;;;;82.63;79.50;;;8.30;99.90;;;;;;4975149;28;20458;-80
2023/12/31 05:28:24;;;;;;;77.80;74.40;;;8.40;99.90;;;;;;4975177;28;20482;-78
2023/12/31 05:30:50;;;;;;;78.17;75.20;;;8.40;99.90;;;;;;4975092;28;20550;-78
2023/12/31 05:33:17;;;;;;;73.80;70.80;;;8.30;99.90;;;;;;4974932;28;20542;-78
2023/12/31 05:35:46;;;;;;;66.50;63.90;;;8.30;99.90;;;;;;4974650;28;20943;-77
2023/12/31 05:38:13;;;;;;;68.40;65.80;;;8.30;99.90;;;;;;4975073;28;20455;-79
2023/12/31 05:40:39;;;;;;;61.80;59.40;;;8.30;99.90;;;;;;4975340;28;20493;-78
2023/12/31 05:43:06;;;;;;;61.40;59.00;;;8.30;99.90;;;;;;4974926;28;20487;-77
2023/12/31 05:45:33;;;;;;;57.27;54.97;;;8.30;99.90;;;;;;4974609;28;20537;-77
2023/12/31 05:48:00;;;;;;;54.57;52.37;;;8.30;99.90;;;;;;4974590;28;20478;-78
2023/12/31 05:50:27;;;;;;;54.50;52.30;;;8.30;99.90;;;;;;4975102;28;20477;-78
2023/12/31 05:52:55;;;;;;;52.23;50.07;;;8.30;99.90;;;;;;4973928;28;20450;-78
2023/12/31 05:55:22;;;;;;;55.93;53.53;;;8.20;99.90;;;;;;4974625;28;20485;-79
2023/12/31 05:57:50;;;;;;;54.70;52.57;;;8.30;99.90;;;;;;4974747;28;20550;-78
2023/12/31 06:00:17;;;;;;;53.27;51.10;;;8.30;99.90;;;;;;4975110;28;20803;-78
2023/12/31 06:02:44;;;;;;;53.10;50.90;;;8.30;99.90;;;;;;4974777;28;20537;-78
2023/12/31 06:05:11;;;;;;;49.00;47.00;;;8.20;99.90;;;;;;4974530;28;20485;-78
2023/12/31 06:07:38;;;;;;;48.93;46.63;;;8.30;99.90;;;;;;4974772;28;20450;-78
2023/12/31 06:10:08;;;;;;;51.57;49.40;;;8.30;99.90;;;;;;4974447;28;20461;-78
2023/12/31 06:12:35;;;;;;;50.43;48.30;;;8.30;99.90;;;;;;4974358;28;20950;-78
2023/12/31 06:15:06;;;;;;;49.90;47.60;;;8.30;99.90;;;;;;4974158;28;20538;-78
2023/12/31 06:17:33;;;;;;;47.33;45.33;;;8.30;99.90;;;;;;4974755;28;20454;-78
2023/12/31 06:20:00;;;;;;;47.07;45.17;;;8.30;99.90;;;;;;4974212;28;20485;-77
2023/12/31 06:22:28;;;;;;;47.20;45.10;;;8.30;99.90;;;;;;4974477;28;20519;-78
2023/12/31 06:24:55;;;;;;;52.97;50.77;;;8.20;99.90;;;;;;4974187;28;20482;-77
2023/12/31 06:27:24;;;;;;;54.63;52.40;;;8.30;99.90;;;;;;4974193;28;20454;-78
2023/12/31 06:29:51;;;;;;;50.83;48.63;;;8.30;99.90;;;;;;4974150;28;20492;-79
2023/12/31 06:32:17;;;;;;;44.60;42.50;;;8.30;99.90;;;;;;4974316;28;20466;-78
2023/12/31 06:34:44;;;;;;;46.13;44.23;;;8.30;99.90;;;;;;4973689;28;20454;-80
2023/12/31 06:37:11;;;;;;;44.83;43.03;;;8.30;99.90;;;;;;4974108;28;20816;-78
2023/12/31 06:39:39;;;;;;;46.17;44.33;;;8.30;99.90;;;;;;4973586;28;20489;-78
2023/12/31 06:42:08;;;;;;;42.33;40.53;;;8.30;99.90;;;;;;4973640;28;20451;-79
2023/12/31 06:44:36;;;;;;;36.40;34.80;;;8.40;99.90;;;;;;4973448;28;20493;-78
2023/12/31 06:47:03;;;;;;;38.90;37.10;;;8.30;99.90;;;;;;4974021;28;20895;-78
2023/12/31 06:49:30;;;;;;;39.60;37.90;;;8.40;99.90;;;;;;4973506;28;20566;-78
2023/12/31 06:51:57;;;;;;;39.17;37.13;;;8.40;99.90;;;;;;4973726;28;20455;-79
2023/12/31 06:54:24;;;;;;;37.40;35.80;;;8.40;99.90;;;;;;4973620;28;20451;-79
2023/12/31 06:56:51;;;;;;;38.20;36.50;;;8.40;99.90;;;;;;4973207;28;20455;-79
2023/12/31 06:59:18;;;;;;;37.10;35.50;;;8.40;99.90;;;;;;4973368;28;20447;-79
2023/12/31 07:01:51;;;;;;;33.70;31.80;;;8.40;99.90;;;;;;4973586;28;20538;-79
2023/12/31 07:04:18;;;;;;;32.50;31.00;;;8.40;99.20;;;;;;4973600;28;21057;-78
2023/12/31 07:06:45;;;;;;;31.30;29.80;;;8.40;99.90;;;;;;4973125;28;20540;-78
2023/12/31 07:09:12;;;;;;;30.23;28.93;;;8.40;99.70;;;;;;4973206;28;20510;-80
2023/12/31 07:11:38;;;;;;;28.93;27.60;;;8.50;99.10;;;;;;4973607;28;20538;-79
2023/12/31 07:14:06;;;;;;;27.03;25.73;;;8.50;99.30;;;;;;4973421;28;20455;-78
2023/12/31 07:16:33;;;;;;;23.27;22.07;;;8.50;99.10;;;;;;4973113;28;20549;-79
2023/12/31 07:19:01;;;;;;;25.10;23.90;;;8.40;99.20;;;;;;4973010;28;20932;-78
2023/12/31 07:21:28;;;;;;;22.97;21.67;;;8.40;99.50;;;;;;4973220;28;20494;-79
2023/12/31 07:23:55;;;;;;;22.63;21.47;;;8.30;99.60;;;;;;4972988;28;20454;-77
2023/12/31 07:26:26;;;;;;;25.17;23.87;;;8.30;99.90;;;;;;4973223;28;20457;-78
2023/12/31 07:28:52;;;;;;;23.70;22.60;;;8.20;99.90;;;;;;4972955;28;20482;-80
2023/12/31 07:31:20;;;;;;;28.77;27.17;;;8.20;99.90;;;;;;4973714;28;20472;-76
2023/12/31 07:33:47;;;;;;;27.73;26.43;;;8.20;99.90;;;;;;4973536;28;20451;-76
2023/12/31 07:36:15;;;;;;;25.90;24.40;;;8.30;99.70;;;;;;4972899;28;20463;-76
2023/12/31 07:38:43;;;;;;;25.53;24.33;;;8.30;99.40;;;;;;4973100;28;20510;-76
2023/12/31 07:41:12;;;;;;;25.67;24.37;;;8.30;99.60;;;;;;4973537;28;20623;-76
2023/12/31 07:43:39;;;;;;;21.60;20.20;;;8.30;99.20;;;;;;4973666;28;20458;-76
2023/12/31 07:46:06;;;;;;;19.23;18.10;;;8.40;98.30;;;;;;4973040;28;21018;-76
2023/12/31 07:48:33;;;;;;;17.30;16.40;;;8.40;99.00;;;;;;4973077;28;20569;-76
2023/12/31 07:51:03;;;;;;;14.33;13.43;;;8.40;98.30;;;;;;4973178;28;20457;-76
2023/12/31 07:53:32;;;;;;;17.40;16.30;;;8.40;97.50;;;;;;4973091;28;20469;-77
2023/12/31 07:55:59;;;;;;;18.67;17.47;;;8.40;98.00;;;;;;4972682;28;20450;-76
2023/12/31 07:58:27;;;;;;;19.73;18.70;;;8.50;98.30;;;;;;4972473;28;20463;-77
2023/12/31 08:00:55;;;;;;;22.03;20.93;;;8.50;98.60;;;;;;4972631;28;20459;-77
2023/12/31 08:03:22;;;;;;;25.20;23.97;;;8.40;99.10;;;;;;4972463;28;20541;-76
2023/12/31 08:05:50;;;;;;;25.70;24.50;;;8.40;99.80;;;;;;4972422;28;20891;-77
2023/12/31 08:08:20;;;;;;;28.80;27.40;;;8.30;99.90;;;;;;4971756;28;20482;-77
2023/12/31 08:10:48;;;;;;;33.80;32.13;;;8.40;99.90;;;;;;4971961;28;20447;-77
2023/12/31 08:13:15;;;;;;;36.00;34.40;;;8.40;99.90;;;;;;4971954;28;20457;-78
2023/12/31 08:15:43;;;;;;;38.90;37.27;;;8.40;99.90;;;;;;4971642;28;20446;-76
2023/12/31 08:18:09;;;;;;;39.50;37.70;;;8.50;99.90;;;;;;4972773;28;20739;-76
2023/12/31 08:20:36;;;;;;;36.33;34.73;;;8.50;99.90;;;;;;4972222;28;20465;-76
2023/12/31 08:23:04;;;;;;;30.97;29.63;;;8.70;99.20;;;;;;4972540;28;20451;-77
2023/12/31 08:25:31;;;;;;;30.00;28.50;;;8.80;98.20;;;;;;4972255;28;20480;-77
2023/12/31 08:27:59;;;;;;;20.30;19.10;;;9.00;98.00;;;;;;4973640;28;20451;-79
2023/12/31 08:30:26;;;;;;;15.00;14.10;;;9.10;98.10;;;;;;4971841;28;20827;-78
2023/12/31 08:32:53;;;;;;;15.60;14.70;;;9.30;97.80;;;;;;4972076;28;21075;-78
2023/12/31 08:35:20;;;;;;;11.53;10.73;;;9.40;97.80;;;;;;4969736;28;20541;-78
2023/12/31 08:37:48;;;;;;;9.00;8.30;;;9.50;97.80;;;;;;4971390;28;20461;-79
2023/12/31 08:40:15;;;;;;;7.83;7.13;;;9.50;97.80;;;;;;4971603;28;20453;-79
2023/12/31 08:42:42;;;;;;;8.30;7.60;;;9.50;97.80;;;;;;4971547;28;20450;-79
2023/12/31 08:45:11;;;;;;;8.03;7.20;;;9.50;97.80;;;;;;4970671;28;20542;-79
2023/12/31 08:47:38;;;;;;;7.30;6.70;;;9.60;97.80;;;;;;4971494;28;20450;-80
2023/12/31 08:50:09;;;;;;;9.10;5.90;;;9.70;95.60;;;;;;4971257;28;20489;-77
2023/12/31 08:52:37;;;;;;;6.43;5.00;;;9.80;96.20;;;;;;4959835;28;20505;-77
2023/12/31 08:55:06;;;;;;;5.83;3.80;;;9.80;96.30;;;;;;4970483;28;20447;-77
2023/12/31 08:57:33;;;;;;;5.63;4.67;;;9.70;96.60;;;;;;4970869;28;20969;-79
2023/12/31 09:00:00;;;;;;;5.20;4.07;;;9.60;96.50;;;;;;4970922;28;20455;-77
2023/12/31 09:02:28;;;;;;;6.60;4.00;;;9.40;97.70;;;;;;4971133;28;20509;-77
2023/12/31 09:04:55;;;;;;;5.87;4.17;;;9.40;97.70;;;;;;4970613;28;20542;-79
2023/12/31 09:07:22;;;;;;;6.40;4.83;;;9.30;97.70;;;;;;4971552;28;20490;-78
2023/12/31 09:09:50;;;;;;;6.00;5.40;;;9.30;97.70;;;;;;4971203;28;20486;-78
2023/12/31 09:12:17;;;;;;;6.33;5.27;;;9.30;97.70;;;;;;4971069;28;20466;-78
2023/12/31 09:14:44;;;;;;;7.83;5.37;;;9.30;97.70;;;;;;4969838;28;20455;-77
2023/12/31 09:17:11;;;;;;;7.37;5.37;;;9.30;97.70;;;;;;4970402;28;20455;-77
2023/12/31 09:19:40;;;;;;;6.27;5.67;;;9.30;97.70;;;;;;4970666;28;20931;-77
2023/12/31 09:22:07;;;;;;;6.67;5.80;;;9.30;97.70;;;;;;4970273;28;20458;-77
2023/12/31 09:24:35;;;;;;;8.93;5.77;;;9.30;97.70;;;;;;4970956;28;21006;-76
2023/12/31 09:27:03;;;;;;;5.63;4.73;;;9.40;97.80;;;;;;4971915;28;20462;-77
2023/12/31 09:29:30;;;;;;;8.20;5.87;;;9.40;97.80;;;;;;4973689;28;20478;-76
2023/12/31 09:31:58;;;;;;;6.00;4.57;;;9.50;97.20;;;;;;4972400;28;20453;-76
2023/12/31 09:34:25;;;;;;;7.13;4.93;;;9.60;94.70;;;;;;4973422;28;20459;-76
2023/12/31 09:36:53;;;;;;;6.13;5.13;;;9.80;94.70;;;;;;4972764;28;20451;-76
2023/12/31 09:39:20;;;;;;;7.20;5.67;;;9.80;96.30;;;;;;4972614;28;20450;-76
2023/12/31 09:41:50;;;;;;;5.70;5.10;;;9.70;97.30;;;;;;4973382;28;20462;-77
2023/12/31 09:44:19;;;;;;;8.57;6.30;;;9.70;97.80;;;;;;4972332;28;20860;-76
2023/12/31 09:46:59;;;;;;;7.90;5.40;;;9.80;97.90;;;;;;4972485;28;20446;-77
2023/12/31 09:49:26;;;;;;;6.83;4.80;;;9.80;96.80;;;;;;4974524;28;21000;-76
2023/12/31 09:51:54;;;;;;;7.03;5.50;;;9.90;94.80;;;;;;4974402;28;20451;-76
2023/12/31 09:54:22;;;;;;;6.30;4.50;;;9.90;95.80;;;;;;4974599;28;20504;-76
2023/12/31 09:56:51;;;;;;;5.60;4.43;;;9.90;94.80;;;;;;4974038;28;20457;-76
2023/12/31 09:59:19;;;;;;;5.93;3.90;;;10.10;94.40;;;;;;4974107;28;20443;-76
2023/12/31 10:01:47;;;;;;;6.17;4.70;;;10.30;93.50;;;;;;4974370;28;20576;-76
2023/12/31 10:04:15;;;;;;;6.00;4.20;;;10.30;92.90;;;;;;4974175;28;20447;-76
2023/12/31 10:06:43;;;;;;;6.43;3.90;;;10.50;91.40;;;;;;4974213;28;20453;-77
2023/12/31 10:09:14;;;;;;;6.33;3.50;;;10.60;91.20;;;;;;4974590;28;20522;-76
2023/12/31 10:11:42;;;;;;;5.07;1.83;;;10.60;91.20;;;;;;4974469;28;20501;-75
2023/12/31 10:14:09;;;;;;;4.03;1.87;;;10.70;85.30;;;;;;4973837;28;20454;-76
2023/12/31 10:16:40;;;;;;;3.70;1.50;;;10.70;85.40;;;;;;4972820;28;20541;-76
2023/12/31 10:19:07;;;;;;;4.77;1.70;;;10.70;82.30;;;;;;4973993;28;20462;-75
2023/12/31 10:21:34;;;;;;;6.17;1.40;;;10.70;79.00;;;;;;4973565;28;20459;-76
2023/12/31 10:24:01;;;;;;;4.30;1.40;;;10.80;77.70;;;;;;4974448;28;20557;-77
2023/12/31 10:26:29;;;;;;;3.63;1.30;;;10.80;77.70;;;;;;4973476;28;20451;-76
2023/12/31 10:28:56;;;;;;;4.73;1.30;;;10.80;69.90;;;;;;4973206;28;20453;-77
2023/12/31 10:31:25;;;;;;;7.20;1.23;;;10.90;69.90;;;;;;4973262;28;20521;-76
2023/12/31 10:33:52;;;;;;;4.50;1.23;;;10.90;69.90;;;;;;4974021;28;20455;-76
2023/12/31 10:36:22;;;;;;;3.70;1.20;;;10.80;77.50;;;;;;4973202;28;20439;-75
2023/12/31 10:38:50;;;;;;;3.70;1.20;;;10.80;77.60;;;;;;4972863;28;20813;-75
2023/12/31 10:41:21;;;;;;;5.90;1.53;;;10.80;77.60;;;;;;4973617;28;20447;-76
2023/12/31 10:43:49;;;;;;;5.77;1.60;;;10.70;77.60;;;;;;4970469;28;20463;-75
2023/12/31 10:46:18;;;;;;;3.60;1.20;;;10.80;74.30;;;;;;4972682;28;20537;-76
2023/12/31 10:48:48;;;;;;;3.97;1.40;;;10.90;73.00;;;;;;4961123;28;20454;-75
2023/12/31 10:51:23;;;;;;;3.67;1.00;;;10.80;77.60;;;;;;4966329;28;20542;-75
2023/12/31 10:53:52;;;;;;;3.20;0.90;;;10.70;77.50;;;;;;4972199;28;20476;-76
2023/12/31 10:56:21;;;;;;;4.87;2.50;;;10.70;74.50;;;;;;4971850;28;20478;-75
2023/12/31 10:58:51;;;;;;;3.80;1.00;;;10.60;74.70;;;;;;4973129;28;20467;-76
2023/12/31 11:01:18;;;;;;;4.57;1.20;;;10.70;78.00;;;;;;4973811;28;20502;-76
2023/12/31 11:03:48;;;;;;;3.40;1.10;;;10.60;77.40;;;;;;4973387;28;20455;-76
2023/12/31 11:06:17;;;;;;;3.93;1.10;;;10.60;74.10;;;;;;4973674;28;20458;-76
2023/12/31 11:08:45;;;;;;;3.80;1.37;;;10.60;75.00;;;;;;4972950;28;20939;-76
2023/12/31 11:11:15;;;;;;;4.80;1.13;;;10.60;75.00;;;;;;4973493;28;20481;-75
2023/12/31 11:13:47;;;;;;;3.80;1.00;;;10.60;76.00;;;;;;4973448;28;20450;-76
2023/12/31 11:16:30;;;;;;;3.37;0.87;;;10.70;73.70;;;;;;4972234;28;20457;-76
2023/12/31 11:19:39;;;;;;;4.63;1.00;;;10.60;77.20;;;;;;4972855;28;20446;-76
2023/12/31 11:22:25;;;;;;;3.40;0.90;;;10.60;77.40;;;;;;4969705;28;20513;-76
2023/12/31 11:24:57;;;;;;;3.50;1.00;;;10.50;77.40;;;;;;4969500;28;20453;-76
2023/12/31 11:27:28;;;;;;;3.63;1.20;;;10.50;77.40;;;;;;4969988;28;20464;-77
2023/12/31 11:29:58;;;;;;;4.07;1.00;;;10.40;77.30;;;;;;4973148;28;20884;-75
2023/12/31 11:32:27;;;;;;;4.23;1.03;;;10.40;77.30;;;;;;4972016;28;20473;-75
2023/12/31 11:34:54;;;;;;;4.37;1.20;;;10.40;77.30;;;;;;4971755;28;20450;-77
2023/12/31 11:37:22;;;;;;;3.30;0.83;;;10.30;77.30;;;;;;4972016;28;20451;-75
2023/12/31 11:39:56;;;;;;;7.70;1.00;;;10.40;77.30;;;;;;4964384;28;20443;-78
2023/12/31 11:42:25;;;;;;;3.70;1.10;;;10.40;77.30;;;;;;4972777;28;20529;-76
2023/12/31 11:44:53;;;;;;;3.40;0.93;;;10.40;77.30;;;;;;4972534;28;20454;-75
2023/12/31 11:47:22;;;;;;;4.00;1.03;;;10.40;77.30;;;;;;4972393;28;20455;-76
2023/12/31 11:49:53;;;;;;;3.80;0.90;;;10.40;77.30;;;;;;4971091;28;20563;-76
2023/12/31 11:52:21;;;;;;;3.40;0.90;;;10.40;77.30;;;;;;4972625;28;21014;-75
2023/12/31 11:54:52;;;;;;;3.83;0.90;;;10.40;77.30;;;;;;4972248;28;20465;-75
2023/12/31 11:57:21;;;;;;;5.50;1.23;;;10.40;77.30;;;;;;4972555;28;20517;-75
2023/12/31 11:59:47;;;;;;;3.30;0.90;;;10.50;77.40;;;;;;4972582;28;20945;-75
2023/12/31 12:02:18;;;;;;;3.50;1.00;;;10.50;77.30;;;;;;4972627;28;20728;-77
2023/12/31 12:04:44;;;;;;;4.77;1.00;;;10.50;77.30;;;;;;4972216;28;20537;-75
2023/12/31 12:07:14;;;;;;;4.60;1.30;;;10.50;77.30;;;;;;4971857;28;20455;-77
2023/12/31 12:09:41;;;;;;;4.60;1.23;;;10.50;71.60;;;;;;4972170;28;20566;-76
2023/12/31 12:12:09;;;;;;;10.40;4.00;;;10.60;70.30;;;;;;4969169;28;20447;-76
2023/12/31 12:14:36;;;;;;;5.60;1.10;;;10.70;73.90;;;;;;4970956;28;20451;-76
2023/12/31 12:17:03;;;;;;;6.03;1.13;;;10.70;73.50;;;;;;4972503;28;20459;-76
2023/12/31 12:19:34;;;;;;;4.80;1.43;;;10.80;69.80;;;;;;4971894;28;20457;-77
2023/12/31 12:22:01;;;;;;;4.23;1.13;;;10.80;69.80;;;;;;4972284;28;20454;-77
2023/12/31 12:24:30;;;;;;;4.83;1.10;;;10.90;69.90;;;;;;4972192;28;20513;-77
2023/12/31 12:27:00;;;;;;;5.70;1.90;;;11.00;70.00;;;;;;4971903;28;20545;-77
2023/12/31 12:29:28;;;;;;;5.13;1.20;;;11.20;66.00;;;;;;4971261;28;20932;-76
2023/12/31 12:31:56;;;;;;;10.60;3.23;;;11.30;62.20;;;;;;4971879;28;20996;-77
2023/12/31 12:34:23;;;;;;;4.17;1.10;;;11.30;62.20;;;;;;4971816;28;20455;-77
2023/12/31 12:36:53;;;;;;;6.87;1.50;;;11.30;62.20;;;;;;4969805;28;20543;-77